sensor_id;sensor_type;location;lat;lon;timestamp;pressure;altitude;pressure_sealevel;temperature;humidity
62634;BME280;48704;50.534;6.442;2022-07-12T00:01:59;96462.78;;;11.95;100.00
62634;BME280;48704;50.534;6.442;2022-07-12T00:04:25;96473.81;;;11.81;100.00
62634;BME280;48704;50.534;6.442;2022-07-12T00:06:50;96471.63;;;11.94;100.00
62634;BME280;48704;50.534;6.442;2022-07-12T00:09:16;96464.94;;;12.19;100.00
62634;BME280;48704;50.534;6.442;2022-07-12T00:11:42;96456.72;;;12.06;100.00
62634;BME280;48704;50.534;6.442;2022-07-12T00:14:08;96459.81;;;11.90;100.00
62634;BME280;48704;50.534;6.442;2022-07-12T00:16:35;96459.31;;;11.64;100.00
62634;BME280;48704;50.534;6.442;2022-07-12T00:19:00;96464.44;;;11.56;100.00
62634;BME280;48704;50.534;6.442;2022-07-12T00:21:26;96465.66;;;11.46;100.00
62634;BME280;48704;50.534;6.442;2022-07-12T00:23:51;96463.78;;;11.34;100.00
62634;BME280;48704;50.534;6.442;2022-07-12T00:26:17;96471.63;;;11.17;100.00
62634;BME280;48704;50.534;6.442;2022-07-12T00:28:43;96468.53;;;11.15;100.00
62634;BME280;48704;50.534;6.442;2022-07-12T00:31:08;96457.38;;;11.15;100.00
62634;BME280;48704;50.534;6.442;2022-07-12T00:33:34;96450.22;;;11.14;100.00
62634;BME280;48704;50.534;6.442;2022-07-12T00:36:00;96457.84;;;11.23;100.00
62634;BME280;48704;50.534;6.442;2022-07-12T00:38:26;96457.06;;;11.22;100.00
62634;BME280;48704;50.534;6.442;2022-07-12T00:40:51;96459.09;;;11.22;100.00
62634;BME280;48704;50.534;6.442;2022-07-12T00:43:17;96456.78;;;11.29;100.00
62634;BME280;48704;50.534;6.442;2022-07-12T00:45:43;96452.78;;;11.39;100.00
62634;BME280;48704;50.534;6.442;2022-07-12T00:48:08;96452.50;;;11.47;100.00
62634;BME280;48704;50.534;6.442;2022-07-12T00:50:35;96452.19;;;11.45;100.00
62634;BME280;48704;50.534;6.442;2022-07-12T00:53:02;96453.53;;;11.31;100.00
62634;BME280;48704;50.534;6.442;2022-07-12T00:55:28;96447.78;;;11.25;100.00
62634;BME280;48704;50.534;6.442;2022-07-12T00:57:54;96457.22;;;11.19;100.00
62634;BME280;48704;50.534;6.442;2022-07-12T01:00:25;96457.69;;;11.08;100.00
62634;BME280;48704;50.534;6.442;2022-07-12T01:02:52;96450.19;;;10.96;100.00
62634;BME280;48704;50.534;6.442;2022-07-12T01:05:19;96445.53;;;10.93;100.00
62634;BME280;48704;50.534;6.442;2022-07-12T01:07:44;96431.00;;;10.98;100.00
62634;BME280;48704;50.534;6.442;2022-07-12T01:10:10;96432.34;;;11.43;100.00
62634;BME280;48704;50.534;6.442;2022-07-12T01:12:36;96434.81;;;11.41;100.00
62634;BME280;48704;50.534;6.442;2022-07-12T01:15:05;96435.22;;;11.12;100.00
62634;BME280;48704;50.534;6.442;2022-07-12T01:17:31;96437.66;;;10.60;100.00
62634;BME280;48704;50.534;6.442;2022-07-12T01:19:57;96438.16;;;10.68;100.00
62634;BME280;48704;50.534;6.442;2022-07-12T01:22:30;96435.75;;;10.88;100.00
62634;BME280;48704;50.534;6.442;2022-07-12T01:24:56;96435.88;;;10.76;100.00
62634;BME280;48704;50.534;6.442;2022-07-12T01:27:22;96435.88;;;10.76;100.00
62634;BME280;48704;50.534;6.442;2022-07-12T01:29:48;96433.22;;;11.21;100.00
62634;BME280;48704;50.534;6.442;2022-07-12T01:32:14;96428.56;;;11.09;100.00
62634;BME280;48704;50.534;6.442;2022-07-12T01:37:24;96436.22;;;10.87;100.00
62634;BME280;48704;50.534;6.442;2022-07-12T01:39:55;96435.25;;;10.81;100.00
62634;BME280;48704;50.534;6.442;2022-07-12T01:42:22;96428.63;;;10.87;100.00
62634;BME280;48704;50.534;6.442;2022-07-12T01:44:48;96422.03;;;11.03;100.00
62634;BME280;48704;50.534;6.442;2022-07-12T01:47:15;96428.47;;;10.91;100.00
62634;BME280;48704;50.534;6.442;2022-07-12T01:49:41;96427.66;;;10.81;100.00
62634;BME280;48704;50.534;6.442;2022-07-12T01:52:07;96429.03;;;10.67;100.00
62634;BME280;48704;50.534;6.442;2022-07-12T01:54:32;96444.63;;;10.96;100.00
62634;BME280;48704;50.534;6.442;2022-07-12T01:56:59;96431.94;;;11.04;100.00
62634;BME280;48704;50.534;6.442;2022-07-12T01:59:25;96445.38;;;10.96;100.00
62634;BME280;48704;50.534;6.442;2022-07-12T02:01:50;96444.63;;;10.96;100.00
62634;BME280;48704;50.534;6.442;2022-07-12T02:04:16;96440.91;;;10.99;100.00
62634;BME280;48704;50.534;6.442;2022-07-12T02:06:44;96438.91;;;10.99;100.00
62634;BME280;48704;50.534;6.442;2022-07-12T02:09:10;96436.13;;;11.09;100.00
62634;BME280;48704;50.534;6.442;2022-07-12T02:11:35;96440.63;;;11.15;100.00
62634;BME280;48704;50.534;6.442;2022-07-12T02:14:01;96444.03;;;11.19;100.00
62634;BME280;48704;50.534;6.442;2022-07-12T02:16:27;96447.31;;;11.27;100.00
62634;BME280;48704;50.534;6.442;2022-07-12T02:18:52;96451.22;;;11.29;100.00
62634;BME280;48704;50.534;6.442;2022-07-12T02:21:18;96442.22;;;11.34;100.00
62634;BME280;48704;50.534;6.442;2022-07-12T02:23:43;96443.78;;;11.35;100.00
62634;BME280;48704;50.534;6.442;2022-07-12T02:26:09;96439.13;;;11.32;100.00
62634;BME280;48704;50.534;6.442;2022-07-12T02:28:34;96444.03;;;11.10;100.00
62634;BME280;48704;50.534;6.442;2022-07-12T02:31:01;96444.81;;;11.11;100.00
62634;BME280;48704;50.534;6.442;2022-07-12T02:33:28;96442.13;;;10.98;100.00
62634;BME280;48704;50.534;6.442;2022-07-12T02:35:53;96441.56;;;11.12;100.00
62634;BME280;48704;50.534;6.442;2022-07-12T02:38:19;96436.59;;;11.07;100.00
62634;BME280;48704;50.534;6.442;2022-07-12T02:40:46;96427.88;;;10.96;100.00
62634;BME280;48704;50.534;6.442;2022-07-12T02:43:22;96430.69;;;11.05;100.00
62634;BME280;48704;50.534;6.442;2022-07-12T02:45:48;96437.13;;;10.84;100.00
62634;BME280;48704;50.534;6.442;2022-07-12T02:48:14;96423.44;;;10.67;100.00
62634;BME280;48704;50.534;6.442;2022-07-12T02:50:40;96426.84;;;10.62;100.00
62634;BME280;48704;50.534;6.442;2022-07-12T02:53:07;96431.91;;;10.55;100.00
62634;BME280;48704;50.534;6.442;2022-07-12T02:55:33;96438.88;;;10.59;100.00
62634;BME280;48704;50.534;6.442;2022-07-12T02:57:59;96433.78;;;10.58;100.00
62634;BME280;48704;50.534;6.442;2022-07-12T03:00:25;96439.41;;;10.67;100.00
62634;BME280;48704;50.534;6.442;2022-07-12T03:02:51;96432.03;;;10.51;100.00
62634;BME280;48704;50.534;6.442;2022-07-12T03:05:16;96438.25;;;10.55;100.00
62634;BME280;48704;50.534;6.442;2022-07-12T03:07:42;96433.97;;;10.32;100.00
62634;BME280;48704;50.534;6.442;2022-07-12T03:10:08;96440.63;;;10.35;100.00
62634;BME280;48704;50.534;6.442;2022-07-12T03:12:34;96439.53;;;10.32;100.00
62634;BME280;48704;50.534;6.442;2022-07-12T03:15:00;96431.81;;;10.36;100.00
62634;BME280;48704;50.534;6.442;2022-07-12T03:17:26;96439.47;;;10.01;100.00
62634;BME280;48704;50.534;6.442;2022-07-12T03:19:52;96439.25;;;9.74;100.00
62634;BME280;48704;50.534;6.442;2022-07-12T03:22:18;96441.78;;;9.81;100.00
62634;BME280;48704;50.534;6.442;2022-07-12T03:24:43;96434.94;;;9.95;100.00
62634;BME280;48704;50.534;6.442;2022-07-12T03:27:09;96435.19;;;9.88;100.00
62634;BME280;48704;50.534;6.442;2022-07-12T03:29:36;96441.63;;;10.19;100.00
62634;BME280;48704;50.534;6.442;2022-07-12T03:32:02;96444.19;;;10.35;100.00
62634;BME280;48704;50.534;6.442;2022-07-12T03:34:28;96445.59;;;10.40;100.00
62634;BME280;48704;50.534;6.442;2022-07-12T03:36:53;96444.72;;;10.52;100.00
62634;BME280;48704;50.534;6.442;2022-07-12T03:39:19;96447.25;;;10.59;100.00
62634;BME280;48704;50.534;6.442;2022-07-12T03:41:44;96444.50;;;10.68;100.00
62634;BME280;48704;50.534;6.442;2022-07-12T03:44:10;96450.28;;;10.74;100.00
62634;BME280;48704;50.534;6.442;2022-07-12T03:46:35;96446.72;;;10.74;100.00
62634;BME280;48704;50.534;6.442;2022-07-12T03:49:01;96448.41;;;10.80;100.00
62634;BME280;48704;50.534;6.442;2022-07-12T03:51:27;96450.88;;;10.78;100.00
62634;BME280;48704;50.534;6.442;2022-07-12T03:53:52;96456.91;;;10.67;100.00
62634;BME280;48704;50.534;6.442;2022-07-12T03:56:18;96447.56;;;10.61;100.00
62634;BME280;48704;50.534;6.442;2022-07-12T03:59:09;96444.78;;;10.61;100.00
62634;BME280;48704;50.534;6.442;2022-07-12T04:01:35;96453.41;;;10.54;100.00
62634;BME280;48704;50.534;6.442;2022-07-12T04:04:01;96452.50;;;10.57;100.00
62634;BME280;48704;50.534;6.442;2022-07-12T04:06:28;96450.09;;;10.68;100.00
62634;BME280;48704;50.534;6.442;2022-07-12T04:08:54;96453.66;;;10.69;100.00
62634;BME280;48704;50.534;6.442;2022-07-12T04:11:19;96453.59;;;10.60;100.00
62634;BME280;48704;50.534;6.442;2022-07-12T04:13:45;96454.44;;;10.69;100.00
62634;BME280;48704;50.534;6.442;2022-07-12T04:16:11;96461.56;;;10.70;100.00
62634;BME280;48704;50.534;6.442;2022-07-12T04:18:38;96468.97;;;10.64;100.00
62634;BME280;48704;50.534;6.442;2022-07-12T04:21:03;96469.09;;;10.61;100.00
62634;BME280;48704;50.534;6.442;2022-07-12T04:23:29;96476.34;;;10.58;100.00
62634;BME280;48704;50.534;6.442;2022-07-12T04:25:54;96486.59;;;10.61;100.00
62634;BME280;48704;50.534;6.442;2022-07-12T04:28:20;96480.47;;;10.76;100.00
62634;BME280;48704;50.534;6.442;2022-07-12T04:30:46;96481.47;;;10.91;100.00
62634;BME280;48704;50.534;6.442;2022-07-12T04:33:12;96475.31;;;10.43;100.00
62634;BME280;48704;50.534;6.442;2022-07-12T04:35:38;96487.66;;;10.33;100.00
62634;BME280;48704;50.534;6.442;2022-07-12T04:38:04;96486.38;;;10.25;100.00
62634;BME280;48704;50.534;6.442;2022-07-12T04:40:30;96485.16;;;10.57;100.00
62634;BME280;48704;50.534;6.442;2022-07-12T04:42:56;96486.66;;;10.80;100.00
62634;BME280;48704;50.534;6.442;2022-07-12T04:45:22;96488.91;;;10.94;100.00
62634;BME280;48704;50.534;6.442;2022-07-12T04:47:48;96495.50;;;11.18;100.00
62634;BME280;48704;50.534;6.442;2022-07-12T04:50:13;96489.22;;;11.36;100.00
62634;BME280;48704;50.534;6.442;2022-07-12T04:52:39;96484.25;;;11.40;100.00
62634;BME280;48704;50.534;6.442;2022-07-12T04:55:05;96488.91;;;11.43;100.00
62634;BME280;48704;50.534;6.442;2022-07-12T04:57:31;96495.31;;;11.62;100.00
62634;BME280;48704;50.534;6.442;2022-07-12T04:59:57;96496.84;;;11.63;100.00
62634;BME280;48704;50.534;6.442;2022-07-12T05:02:23;96489.94;;;11.77;100.00
62634;BME280;48704;50.534;6.442;2022-07-12T05:04:48;96493.81;;;11.79;100.00
62634;BME280;48704;50.534;6.442;2022-07-12T05:07:14;96496.59;;;11.88;100.00
62634;BME280;48704;50.534;6.442;2022-07-12T05:09:40;96500.66;;;12.05;100.00
62634;BME280;48704;50.534;6.442;2022-07-12T05:12:06;96501.28;;;12.10;100.00
62634;BME280;48704;50.534;6.442;2022-07-12T05:14:31;96507.13;;;12.57;100.00
62634;BME280;48704;50.534;6.442;2022-07-12T05:16:57;96499.63;;;12.63;100.00
62634;BME280;48704;50.534;6.442;2022-07-12T05:19:22;96495.03;;;12.42;100.00
62634;BME280;48704;50.534;6.442;2022-07-12T05:21:49;96491.97;;;12.22;100.00
62634;BME280;48704;50.534;6.442;2022-07-12T05:24:14;96484.97;;;11.99;100.00
62634;BME280;48704;50.534;6.442;2022-07-12T05:26:40;96493.66;;;12.01;100.00
62634;BME280;48704;50.534;6.442;2022-07-12T05:29:06;96484.81;;;11.84;100.00
62634;BME280;48704;50.534;6.442;2022-07-12T05:31:32;96486.97;;;11.89;100.00
62634;BME280;48704;50.534;6.442;2022-07-12T05:33:58;96492.25;;;11.96;100.00
62634;BME280;48704;50.534;6.442;2022-07-12T05:36:23;96492.56;;;12.08;100.00
62634;BME280;48704;50.534;6.442;2022-07-12T05:38:49;96482.00;;;12.30;100.00
62634;BME280;48704;50.534;6.442;2022-07-12T05:41:15;96484.78;;;12.39;100.00
62634;BME280;48704;50.534;6.442;2022-07-12T05:43:40;96489.13;;;12.49;100.00
62634;BME280;48704;50.534;6.442;2022-07-12T05:46:06;96486.31;;;12.58;100.00
62634;BME280;48704;50.534;6.442;2022-07-12T05:48:32;96492.78;;;12.73;100.00
62634;BME280;48704;50.534;6.442;2022-07-12T05:50:57;96483.59;;;12.82;100.00
62634;BME280;48704;50.534;6.442;2022-07-12T05:53:43;96491.72;;;13.13;100.00
62634;BME280;48704;50.534;6.442;2022-07-12T05:56:08;96500.13;;;13.04;100.00
62634;BME280;48704;50.534;6.442;2022-07-12T05:58:34;96502.50;;;13.38;100.00
62634;BME280;48704;50.534;6.442;2022-07-12T06:01:00;96505.94;;;13.66;100.00
62634;BME280;48704;50.534;6.442;2022-07-12T06:03:25;96506.16;;;13.78;100.00
62634;BME280;48704;50.534;6.442;2022-07-12T06:05:51;96522.78;;;13.81;100.00
62634;BME280;48704;50.534;6.442;2022-07-12T06:08:16;96520.41;;;13.65;100.00
62634;BME280;48704;50.534;6.442;2022-07-12T06:10:43;96519.25;;;13.48;100.00
62634;BME280;48704;50.534;6.442;2022-07-12T06:13:08;96521.38;;;13.29;100.00
62634;BME280;48704;50.534;6.442;2022-07-12T06:15:35;96515.16;;;13.58;100.00
62634;BME280;48704;50.534;6.442;2022-07-12T06:18:02;96515.28;;;13.87;100.00
62634;BME280;48704;50.534;6.442;2022-07-12T06:20:28;96509.56;;;14.20;100.00
62634;BME280;48704;50.534;6.442;2022-07-12T06:22:54;96513.53;;;14.52;100.00
62634;BME280;48704;50.534;6.442;2022-07-12T06:25:21;96517.03;;;14.77;100.00
62634;BME280;48704;50.534;6.442;2022-07-12T06:27:47;96522.16;;;14.93;100.00
62634;BME280;48704;50.534;6.442;2022-07-12T06:30:17;96518.38;;;14.96;100.00
62634;BME280;48704;50.534;6.442;2022-07-12T06:32:47;96515.66;;;15.16;100.00
62634;BME280;48704;50.534;6.442;2022-07-12T06:35:14;96523.06;;;15.34;100.00
62634;BME280;48704;50.534;6.442;2022-07-12T06:37:44;96525.47;;;15.56;100.00
62634;BME280;48704;50.534;6.442;2022-07-12T06:40:10;96529.13;;;15.62;100.00
62634;BME280;48704;50.534;6.442;2022-07-12T06:42:36;96540.31;;;15.91;100.00
62634;BME280;48704;50.534;6.442;2022-07-12T06:45:02;96546.34;;;15.84;100.00
62634;BME280;48704;50.534;6.442;2022-07-12T06:47:28;96541.91;;;15.98;100.00
62634;BME280;48704;50.534;6.442;2022-07-12T06:49:54;96547.19;;;16.11;100.00
62634;BME280;48704;50.534;6.442;2022-07-12T06:52:20;96541.72;;;16.22;100.00
62634;BME280;48704;50.534;6.442;2022-07-12T06:54:46;96546.91;;;16.29;100.00
62634;BME280;48704;50.534;6.442;2022-07-12T06:57:11;96540.41;;;16.43;100.00
62634;BME280;48704;50.534;6.442;2022-07-12T06:59:37;96534.22;;;16.39;100.00
62634;BME280;48704;50.534;6.442;2022-07-12T07:02:03;96533.38;;;16.53;100.00
62634;BME280;48704;50.534;6.442;2022-07-12T07:04:29;96533.94;;;16.57;100.00
62634;BME280;48704;50.534;6.442;2022-07-12T07:06:55;96542.56;;;16.74;100.00
62634;BME280;48704;50.534;6.442;2022-07-12T07:09:20;96541.81;;;16.74;100.00
62634;BME280;48704;50.534;6.442;2022-07-12T07:11:46;96552.09;;;17.02;100.00
62634;BME280;48704;50.534;6.442;2022-07-12T07:14:11;96549.41;;;17.19;98.76
62634;BME280;48704;50.534;6.442;2022-07-12T07:16:37;96553.66;;;17.09;95.45
62634;BME280;48704;50.534;6.442;2022-07-12T07:19:03;96556.78;;;17.43;93.23
62634;BME280;48704;50.534;6.442;2022-07-12T07:21:29;96561.75;;;17.59;90.78
62634;BME280;48704;50.534;6.442;2022-07-12T07:23:54;96555.13;;;17.62;92.07
62634;BME280;48704;50.534;6.442;2022-07-12T07:26:21;96558.16;;;17.58;93.86
62634;BME280;48704;50.534;6.442;2022-07-12T07:28:47;96562.44;;;17.43;92.34
62634;BME280;48704;50.534;6.442;2022-07-12T07:31:35;96560.84;;;17.67;90.13
62634;BME280;48704;50.534;6.442;2022-07-12T07:34:02;96559.09;;;17.76;90.75
62634;BME280;48704;50.534;6.442;2022-07-12T07:36:27;96563.03;;;17.58;89.90
62634;BME280;48704;50.534;6.442;2022-07-12T07:38:53;96563.47;;;17.77;87.82
62634;BME280;48704;50.534;6.442;2022-07-12T07:41:19;96564.66;;;18.07;87.84
62634;BME280;48704;50.534;6.442;2022-07-12T07:43:44;96563.22;;;18.28;84.05
62634;BME280;48704;50.534;6.442;2022-07-12T07:46:10;96565.38;;;18.45;84.32
62634;BME280;48704;50.534;6.442;2022-07-12T07:48:36;96570.50;;;18.46;85.90
62634;BME280;48704;50.534;6.442;2022-07-12T07:51:01;96574.69;;;18.67;86.00
62634;BME280;48704;50.534;6.442;2022-07-12T07:53:27;96567.50;;;18.61;83.93
62634;BME280;48704;50.534;6.442;2022-07-12T07:55:53;96566.94;;;18.57;83.98
62634;BME280;48704;50.534;6.442;2022-07-12T07:58:18;96563.19;;;18.77;80.11
62634;BME280;48704;50.534;6.442;2022-07-12T08:00:46;96576.03;;;18.78;81.75
62634;BME280;48704;50.534;6.442;2022-07-12T08:03:13;96569.13;;;18.90;82.34
62634;BME280;48704;50.534;6.442;2022-07-12T08:05:38;96566.06;;;18.93;82.32
62634;BME280;48704;50.534;6.442;2022-07-12T08:08:04;96557.31;;;18.91;84.50
62634;BME280;48704;50.534;6.442;2022-07-12T08:10:30;96557.06;;;18.84;84.85
62634;BME280;48704;50.534;6.442;2022-07-12T08:12:55;96566.53;;;18.81;85.69
62634;BME280;48704;50.534;6.442;2022-07-12T08:15:21;96557.06;;;18.95;85.45
62634;BME280;48704;50.534;6.442;2022-07-12T08:17:47;96558.59;;;18.85;87.61
62634;BME280;48704;50.534;6.442;2022-07-12T08:20:12;96563.75;;;19.09;81.99
62634;BME280;48704;50.534;6.442;2022-07-12T08:22:47;96557.56;;;18.99;85.38
62634;BME280;48704;50.534;6.442;2022-07-12T08:25:13;96555.53;;;19.05;84.17
62634;BME280;48704;50.534;6.442;2022-07-12T08:27:38;96569.41;;;18.92;80.04
62634;BME280;48704;50.534;6.442;2022-07-12T08:30:05;96561.97;;;19.06;79.17
62634;BME280;48704;50.534;6.442;2022-07-12T08:32:30;96567.38;;;19.20;78.52
62634;BME280;48704;50.534;6.442;2022-07-12T08:34:56;96562.50;;;19.26;76.53
62634;BME280;48704;50.534;6.442;2022-07-12T08:37:22;96565.56;;;19.17;75.45
62634;BME280;48704;50.534;6.442;2022-07-12T08:39:47;96564.50;;;18.98;79.23
62634;BME280;48704;50.534;6.442;2022-07-12T08:42:16;96562.00;;;19.22;77.64
62634;BME280;48704;50.534;6.442;2022-07-12T08:44:44;96568.94;;;19.27;76.76
62634;BME280;48704;50.534;6.442;2022-07-12T08:47:10;96570.00;;;19.57;76.30
62634;BME280;48704;50.534;6.442;2022-07-12T08:49:37;96570.25;;;19.65;72.71
62634;BME280;48704;50.534;6.442;2022-07-12T08:52:35;96567.44;;;19.65;71.60
62634;BME280;48704;50.534;6.442;2022-07-12T08:57:43;96579.16;;;20.08;68.43
62634;BME280;48704;50.534;6.442;2022-07-12T09:00:09;96573.22;;;20.23;67.23
62634;BME280;48704;50.534;6.442;2022-07-12T09:02:56;96566.81;;;20.17;64.88
62634;BME280;48704;50.534;6.442;2022-07-12T09:05:29;96563.13;;;20.44;64.67
62634;BME280;48704;50.534;6.442;2022-07-12T09:08:08;96574.56;;;20.80;64.97
62634;BME280;48704;50.534;6.442;2022-07-12T09:13:16;96564.06;;;20.75;61.04
62634;BME280;48704;50.534;6.442;2022-07-12T09:15:41;96561.91;;;20.86;62.86
62634;BME280;48704;50.534;6.442;2022-07-12T09:18:07;96560.84;;;20.95;63.54
62634;BME280;48704;50.534;6.442;2022-07-12T09:20:42;96547.25;;;21.29;63.28
62634;BME280;48704;50.534;6.442;2022-07-12T09:23:10;96551.97;;;21.15;64.08
62634;BME280;48704;50.534;6.442;2022-07-12T09:25:38;96551.31;;;21.33;64.43
62634;BME280;48704;50.534;6.442;2022-07-12T09:28:06;96558.50;;;21.40;62.28
62634;BME280;48704;50.534;6.442;2022-07-12T09:30:32;96557.78;;;21.64;62.58
62634;BME280;48704;50.534;6.442;2022-07-12T09:35:58;96552.09;;;21.64;61.43
62634;BME280;48704;50.534;6.442;2022-07-12T09:38:34;96554.31;;;21.77;61.75
62634;BME280;48704;50.534;6.442;2022-07-12T09:41:01;96544.84;;;22.23;58.74
62634;BME280;48704;50.534;6.442;2022-07-12T09:43:27;96541.16;;;22.28;61.46
62634;BME280;48704;50.534;6.442;2022-07-12T09:45:53;96547.41;;;22.26;56.52
62634;BME280;48704;50.534;6.442;2022-07-12T09:48:19;96551.31;;;22.42;55.83
62634;BME280;48704;50.534;6.442;2022-07-12T09:50:49;96549.63;;;22.33;57.25
62634;BME280;48704;50.534;6.442;2022-07-12T09:53:31;96552.19;;;22.13;58.52
62634;BME280;48704;50.534;6.442;2022-07-12T09:56:03;96551.03;;;22.46;56.83
62634;BME280;48704;50.534;6.442;2022-07-12T09:58:39;96545.69;;;22.18;55.20
62634;BME280;48704;50.534;6.442;2022-07-12T10:01:06;96556.53;;;22.38;56.45
62634;BME280;48704;50.534;6.442;2022-07-12T10:03:32;96560.28;;;22.71;55.61
62634;BME280;48704;50.534;6.442;2022-07-12T10:06:01;96560.03;;;22.93;53.34
62634;BME280;48704;50.534;6.442;2022-07-12T10:08:30;96564.47;;;22.88;52.72
62634;BME280;48704;50.534;6.442;2022-07-12T10:10:57;96555.53;;;22.79;53.19
62634;BME280;48704;50.534;6.442;2022-07-12T10:13:23;96554.91;;;23.05;50.98
62634;BME280;48704;50.534;6.442;2022-07-12T10:15:51;96558.25;;;23.59;49.15
62634;BME280;48704;50.534;6.442;2022-07-12T10:18:18;96562.09;;;23.43;48.13
62634;BME280;48704;50.534;6.442;2022-07-12T10:20:48;96565.00;;;23.75;49.70
62634;BME280;48704;50.534;6.442;2022-07-12T10:23:28;96563.53;;;23.37;51.65
62634;BME280;48704;50.534;6.442;2022-07-12T10:25:56;96563.78;;;24.42;50.08
62634;BME280;48704;50.534;6.442;2022-07-12T10:28:22;96567.59;;;24.71;47.36
62634;BME280;48704;50.534;6.442;2022-07-12T10:30:49;96567.72;;;24.39;46.97
62634;BME280;48704;50.534;6.442;2022-07-12T10:33:19;96562.25;;;24.28;47.37
62634;BME280;48704;50.534;6.442;2022-07-12T10:38:28;96565.94;;;24.76;44.50
62634;BME280;48704;50.534;6.442;2022-07-12T10:41:17;96564.31;;;25.27;44.05
62634;BME280;48704;50.534;6.442;2022-07-12T10:44:05;96563.75;;;25.29;43.26
62634;BME280;48704;50.534;6.442;2022-07-12T10:46:31;96565.53;;;25.53;43.49
62634;BME280;48704;50.534;6.442;2022-07-12T10:49:24;96563.47;;;25.74;41.45
62634;BME280;48704;50.534;6.442;2022-07-12T10:54:37;96564.25;;;25.95;40.65
62634;BME280;48704;50.534;6.442;2022-07-12T10:57:03;96560.66;;;26.23;41.74
62634;BME280;48704;50.534;6.442;2022-07-12T10:59:30;96562.88;;;26.38;40.91
62634;BME280;48704;50.534;6.442;2022-07-12T11:01:58;96560.63;;;27.16;37.51
62634;BME280;48704;50.534;6.442;2022-07-12T11:04:27;96552.91;;;25.82;37.03
62634;BME280;48704;50.534;6.442;2022-07-12T11:06:53;96555.38;;;25.10;40.27
62634;BME280;48704;50.534;6.442;2022-07-12T11:09:22;96549.84;;;25.80;40.13
62634;BME280;48704;50.534;6.442;2022-07-12T11:11:49;96550.84;;;26.32;38.44
62634;BME280;48704;50.534;6.442;2022-07-12T11:14:28;96553.13;;;26.13;39.24
62634;BME280;48704;50.534;6.442;2022-07-12T11:16:58;96545.06;;;25.07;41.92
62634;BME280;48704;50.534;6.442;2022-07-12T11:19:30;96551.16;;;25.58;39.48
62634;BME280;48704;50.534;6.442;2022-07-12T11:21:56;96548.25;;;26.21;39.03
62634;BME280;48704;50.534;6.442;2022-07-12T11:24:28;96545.78;;;26.46;39.36
62634;BME280;48704;50.534;6.442;2022-07-12T11:26:55;96542.53;;;26.21;39.16
62634;BME280;48704;50.534;6.442;2022-07-12T11:29:21;96534.53;;;26.84;37.80
62634;BME280;48704;50.534;6.442;2022-07-12T11:31:47;96532.16;;;26.31;38.18
62634;BME280;48704;50.534;6.442;2022-07-12T11:34:25;96533.34;;;27.08;37.59
62634;BME280;48704;50.534;6.442;2022-07-12T11:36:56;96533.22;;;27.36;35.45
62634;BME280;48704;50.534;6.442;2022-07-12T11:39:48;96530.03;;;26.96;37.67
62634;BME280;48704;50.534;6.442;2022-07-12T11:42:16;96527.56;;;28.35;34.97
62634;BME280;48704;50.534;6.442;2022-07-12T11:47:09;96527.09;;;28.69;35.06
62634;BME280;48704;50.534;6.442;2022-07-12T11:49:35;96528.84;;;29.12;33.85
62634;BME280;48704;50.534;6.442;2022-07-12T11:52:01;96522.44;;;29.69;32.53
62634;BME280;48704;50.534;6.442;2022-07-12T11:54:29;96523.25;;;30.12;31.64
62634;BME280;48704;50.534;6.442;2022-07-12T11:57:09;96524.19;;;29.89;29.43
62634;BME280;48704;50.534;6.442;2022-07-12T11:59:35;96522.22;;;30.00;30.57
62634;BME280;48704;50.534;6.442;2022-07-12T12:02:11;96519.97;;;29.90;30.44
62634;BME280;48704;50.534;6.442;2022-07-12T12:07:14;96521.34;;;29.24;30.22
62634;BME280;48704;50.534;6.442;2022-07-12T12:10:00;96521.06;;;30.20;30.04
62634;BME280;48704;50.534;6.442;2022-07-12T12:12:43;96514.69;;;29.79;30.70
62634;BME280;48704;50.534;6.442;2022-07-12T12:15:11;96516.50;;;30.17;29.02
62634;BME280;48704;50.534;6.442;2022-07-12T12:20:13;96510.84;;;30.26;28.97
62634;BME280;48704;50.534;6.442;2022-07-12T12:22:39;96507.75;;;29.82;28.09
62634;BME280;48704;50.534;6.442;2022-07-12T12:25:05;96506.53;;;30.18;28.93
62634;BME280;48704;50.534;6.442;2022-07-12T12:30:08;96504.75;;;30.22;27.97
62634;BME280;48704;50.534;6.442;2022-07-12T12:35:11;96505.66;;;29.58;28.16
62634;BME280;48704;50.534;6.442;2022-07-12T12:37:37;96488.88;;;29.14;28.71
62634;BME280;48704;50.534;6.442;2022-07-12T12:40:03;96487.13;;;29.76;30.17
62634;BME280;48704;50.534;6.442;2022-07-12T12:42:29;96477.97;;;29.95;29.49
62634;BME280;48704;50.534;6.442;2022-07-12T12:44:55;96495.25;;;29.70;29.32
62634;BME280;48704;50.534;6.442;2022-07-12T12:47:21;96494.41;;;29.77;29.78
62634;BME280;48704;50.534;6.442;2022-07-12T12:50:01;96483.84;;;29.22;28.60
62634;BME280;48704;50.534;6.442;2022-07-12T12:52:29;96501.63;;;30.28;29.27
62634;BME280;48704;50.534;6.442;2022-07-12T12:54:56;96491.94;;;29.99;26.33
62634;BME280;48704;50.534;6.442;2022-07-12T12:57:22;96494.03;;;29.16;28.12
62634;BME280;48704;50.534;6.442;2022-07-12T12:59:49;96495.13;;;30.27;28.05
62634;BME280;48704;50.534;6.442;2022-07-12T13:02:15;96489.34;;;30.70;26.97
62634;BME280;48704;50.534;6.442;2022-07-12T13:04:41;96498.78;;;31.14;26.19
62634;BME280;48704;50.534;6.442;2022-07-12T13:07:07;96490.91;;;31.42;25.70
62634;BME280;48704;50.534;6.442;2022-07-12T13:09:32;96488.66;;;29.77;26.35
62634;BME280;48704;50.534;6.442;2022-07-12T13:11:59;96483.19;;;28.99;28.93
62634;BME280;48704;50.534;6.442;2022-07-12T13:14:25;96484.63;;;28.83;28.93
62634;BME280;48704;50.534;6.442;2022-07-12T13:16:51;96487.69;;;28.70;29.17
62634;BME280;48704;50.534;6.442;2022-07-12T13:19:16;96478.97;;;28.52;28.51
62634;BME280;48704;50.534;6.442;2022-07-12T13:21:42;96491.03;;;28.43;29.10
62634;BME280;48704;50.534;6.442;2022-07-12T13:24:07;96492.09;;;29.76;29.12
62634;BME280;48704;50.534;6.442;2022-07-12T13:26:33;96500.41;;;30.73;27.15